Time;durP1;ratioP1;P1;durP2;ratioP2;P2;SDS_P1;SDS_P2;PMS_P1;PMS_P2;Temp;Humidity;BMP_temperature;BMP_pressure;BME280_temperature;BME280_humidity;BME280_pressure;Samples;Min_cycle;Max_cycle;Signal;HPM_P1;HPM_P2
2022/05/29 00:02:09;;;;;;;5.68;2.50;;;;;;;;;;5114274;27;20106;-71
2022/05/29 00:04:35;;;;;;;5.70;3.30;;;;;;;;;;5103630;27;20030;-75
2022/05/29 00:07:01;;;;;;;7.40;3.50;;;;;;;;;;5116126;27;20027;-76
2022/05/29 00:09:37;;;;;;;7.45;3.42;;;;;;;;;;5122945;27;20026;-71
2022/05/29 00:12:04;;;;;;;6.10;3.15;;;;;;;;;;5110248;27;20497;-70
2022/05/29 00:14:31;;;;;;;6.30;3.20;;;;;;;;;;5103628;27;20468;-74
2022/05/29 00:16:57;;;;;;;5.10;2.90;;;;;;;;;;5117416;27;20088;-75
2022/05/29 00:19:22;;;;;;;5.88;2.40;;;;;;;;;;5114622;27;20111;-72
2022/05/29 00:21:48;;;;;;;3.85;1.90;;;;;;;;;;5114773;27;20534;-73
2022/05/29 00:24:14;;;;;;;3.63;1.73;;;;;;;;;;5113694;27;20118;-71
2022/05/29 00:26:40;;;;;;;4.90;1.95;;;;;;;;;;5116622;27;20106;-75
2022/05/29 00:29:07;;;;;;;5.03;1.88;;;;;;;;;;5099782;27;20450;-75
2022/05/29 00:31:33;;;;;;;3.95;1.80;;;;;;;;;;5100141;27;20031;-75
2022/05/29 00:33:58;;;;;;;4.13;2.00;;;;;;;;;;5114190;27;20058;-76
2022/05/29 00:36:25;;;;;;;5.22;1.90;;;;;;;;;;5091410;27;20035;-74
2022/05/29 00:38:50;;;;;;;2.60;1.60;;;;;;;;;;5116719;27;20035;-75
2022/05/29 00:41:25;;;;;;;4.70;2.00;;;;;;;;;;5115813;27;20497;-73
2022/05/29 00:44:12;;;;;;;6.32;2.05;;;;;;;;;;5116182;27;20488;-71
2022/05/29 00:46:42;;;;;;;3.20;1.70;;;;;;;;;;5117188;27;20039;-71
2022/05/29 00:49:09;;;;;;;3.75;2.08;;;;;;;;;;5096799;27;20028;-75
2022/05/29 00:51:43;;;;;;;4.97;2.03;;;;;;;;;;5121936;27;20154;-70
2022/05/29 00:54:09;;;;;;;4.80;2.22;;;;;;;;;;5117038;27;20110;-76
2022/05/29 00:56:37;;;;;;;4.82;2.00;;;;;;;;;;5115613;27;20023;-76
2022/05/29 00:59:05;;;;;;;7.72;2.05;;;;;;;;;;5114392;27;20030;-74
2022/05/29 01:01:30;;;;;;;3.78;2.00;;;;;;;;;;5117706;27;20126;-74
2022/05/29 01:03:55;;;;;;;3.30;2.00;;;;;;;;;;5102306;27;20106;-75
2022/05/29 01:06:21;;;;;;;3.90;2.58;;;;;;;;;;5117659;27;20106;-74
2022/05/29 01:08:47;;;;;;;5.50;2.40;;;;;;;;;;5115695;27;20072;-70
2022/05/29 01:11:43;;;;;;;5.70;2.17;;;;;;;;;;5106436;27;20030;-75
2022/05/29 01:14:38;;;;;;;4.75;2.15;;;;;;;;;;5115655;27;20110;-71
2022/05/29 01:17:24;;;;;;;4.38;1.88;;;;;;;;;;5120860;28;20031;-75
2022/05/29 01:20:08;;;;;;;4.30;2.05;;;;;;;;;;5114278;28;20118;-76
2022/05/29 01:22:52;;;;;;;5.65;2.08;;;;;;;;;;5113402;28;20082;-76
2022/05/29 01:25:55;;;;;;;5.80;2.38;;;;;;;;;;5095535;28;20036;-76
2022/05/29 01:28:52;;;;;;;6.97;2.20;;;;;;;;;;5112801;28;20116;-71
2022/05/29 01:31:31;;;;;;;5.32;2.20;;;;;;;;;;5119963;28;20023;-71
2022/05/29 01:34:12;;;;;;;5.80;2.22;;;;;;;;;;5116685;28;20096;-71
2022/05/29 01:36:59;;;;;;;4.40;1.95;;;;;;;;;;5117872;28;20053;-76
2022/05/29 01:39:28;;;;;;;3.58;1.80;;;;;;;;;;5096933;28;20613;-75
2022/05/29 01:42:18;;;;;;;3.88;1.83;;;;;;;;;;5097562;28;20023;-75
2022/05/29 01:44:46;;;;;;;6.70;1.80;;;;;;;;;;5113699;28;20032;-70
2022/05/29 01:47:23;;;;;;;4.75;2.03;;;;;;;;;;5095612;28;20467;-71
2022/05/29 01:49:51;;;;;;;4.93;1.95;;;;;;;;;;5119769;28;20031;-71
2022/05/29 01:52:26;;;;;;;4.38;1.75;;;;;;;;;;5116777;27;20030;-71
2022/05/29 01:55:03;;;;;;;2.55;1.60;;;;;;;;;;5091785;28;20024;-73
2022/05/29 01:57:36;;;;;;;3.35;1.80;;;;;;;;;;5111889;28;20057;-72
2022/05/29 02:00:01;;;;;;;;;;;;;;;;;;5098947;28;20020;-75
2022/05/29 02:02:33;;;;;;;5.33;1.90;;;;;;;;;;5116258;28;19919;-71
2022/05/29 02:05:05;;;;;;;5.72;2.20;;;;;;;;;;5120498;28;20782;-72
2022/05/29 02:07:49;;;;;;;5.47;1.85;;;;;;;;;;5094427;28;20401;-71
2022/05/29 02:10:31;;;;;;;4.43;1.75;;;;;;;;;;5120533;27;20490;-74
2022/05/29 02:13:05;;;;;;;5.45;2.35;;;;;;;;;;5116800;28;20110;-74
2022/05/29 02:15:39;;;;;;;3.60;1.80;;;;;;;;;;5100570;28;20024;-70
2022/05/29 02:18:10;;;;;;;4.65;1.85;;;;;;;;;;5112537;28;20019;-72
2022/05/29 02:20:44;;;;;;;4.85;2.33;;;;;;;;;;5095995;28;20297;-71
2022/05/29 02:23:18;;;;;;;6.82;2.75;;;;;;;;;;5112625;27;20023;-73
2022/05/29 02:25:45;;;;;;;5.68;2.42;;;;;;;;;;5102212;27;20076;-71
2022/05/29 02:28:16;;;;;;;5.30;2.08;;;;;;;;;;5116635;27;20011;-71
2022/05/29 02:30:48;;;;;;;5.93;2.40;;;;;;;;;;5115177;27;20149;-70
2022/05/29 02:33:28;;;;;;;5.93;2.50;;;;;;;;;;5104254;27;20020;-75
2022/05/29 02:36:19;;;;;;;3.90;1.98;;;;;;;;;;5117778;27;20049;-76
2022/05/29 02:38:56;;;;;;;4.05;2.20;;;;;;;;;;5100894;27;20051;-71
2022/05/29 02:41:30;;;;;;;5.78;2.10;;;;;;;;;;5114399;27;20031;-71
2022/05/29 02:44:15;;;;;;;3.50;1.95;;;;;;;;;;5106471;27;20023;-75
2022/05/29 02:46:57;;;;;;;4.78;2.10;;;;;;;;;;5117584;27;20027;-71
2022/05/29 02:49:42;;;;;;;5.00;2.25;;;;;;;;;;5117919;27;20023;-71
2022/05/29 02:52:12;;;;;;;4.55;2.15;;;;;;;;;;5101770;27;20398;-76
2022/05/29 02:54:37;;;;;;;4.13;2.05;;;;;;;;;;5119138;27;20023;-71
2022/05/29 02:57:04;;;;;;;4.15;2.05;;;;;;;;;;5121637;27;20023;-75
2022/05/29 02:59:34;;;;;;;7.63;2.83;;;;;;;;;;5099748;27;20119;-71
2022/05/29 03:02:52;;;;;;;5.63;2.75;;;;;;;;;;5095308;27;20504;-75
2022/05/29 03:05:31;;;;;;;6.15;2.65;;;;;;;;;;5051321;28;20063;-71
2022/05/29 03:08:15;;;;;;;3.67;2.08;;;;;;;;;;5059238;28;20029;-71
2022/05/29 03:10:48;;;;;;;5.65;2.20;;;;;;;;;;5107044;27;20162;-75
2022/05/29 03:13:54;;;;;;;4.53;2.33;;;;;;;;;;5123704;27;20364;-76
2022/05/29 03:16:26;;;;;;;6.70;2.33;;;;;;;;;;5098887;27;20453;-72
2022/05/29 03:19:34;;;;;;;4.45;2.30;;;;;;;;;;5117540;27;20378;-75
2022/05/29 03:22:12;;;;;;;4.53;2.13;;;;;;;;;;5077602;27;20407;-71
2022/05/29 03:25:32;;;;;;;4.93;2.33;;;;;;;;;;5121091;27;20035;-74
2022/05/29 03:28:00;;;;;;;4.25;2.00;;;;;;;;;;5040469;28;20078;-76
2022/05/29 03:30:37;;;;;;;3.53;1.48;;;;;;;;;;5103063;27;20043;-76
2022/05/29 03:33:06;;;;;;;3.90;1.42;;;;;;;;;;5120997;27;20023;-73
2022/05/29 03:35:53;;;;;;;4.03;1.35;;;;;;;;;;5117796;27;20035;-72
2022/05/29 03:38:20;;;;;;;4.50;1.70;;;;;;;;;;5111223;27;20081;-76
2022/05/29 03:40:46;;;;;;;5.82;1.35;;;;;;;;;;5101053;27;20031;-72
2022/05/29 03:43:12;;;;;;;3.83;1.58;;;;;;;;;;5115329;27;20027;-72
2022/05/29 03:45:37;;;;;;;3.40;1.38;;;;;;;;;;5117722;27;20026;-72
2022/05/29 03:48:04;;;;;;;3.20;1.35;;;;;;;;;;5117160;27;20030;-74
2022/05/29 03:50:29;;;;;;;3.67;1.40;;;;;;;;;;5116325;27;20478;-72
2022/05/29 03:52:55;;;;;;;4.68;1.42;;;;;;;;;;5120599;27;20026;-72
2022/05/29 03:55:24;;;;;;;4.05;1.40;;;;;;;;;;5117831;27;21438;-76
2022/05/29 03:57:50;;;;;;;4.45;1.10;;;;;;;;;;5116137;27;20779;-72
2022/05/29 04:00:17;;;;;;;4.43;1.40;;;;;;;;;;5112203;27;20023;-74
2022/05/29 04:02:44;;;;;;;4.05;1.35;;;;;;;;;;5120242;27;20061;-72
2022/05/29 04:05:19;;;;;;;5.32;1.67;;;;;;;;;;5102096;27;20479;-72
2022/05/29 04:13:14;;;;;;;3.78;1.13;;;;;;;;;;5113593;27;21231;-76
2022/05/29 04:15:45;;;;;;;3.42;1.00;;;;;;;;;;5110183;27;20035;-72
2022/05/29 04:18:12;;;;;;;2.90;0.90;;;;;;;;;;5116810;27;20027;-72
2022/05/29 04:20:37;;;;;;;2.22;0.90;;;;;;;;;;5115078;27;20423;-76
2022/05/29 04:23:02;;;;;;;3.50;1.00;;;;;;;;;;5097063;27;20027;-72
2022/05/29 04:25:28;;;;;;;2.67;1.33;;;;;;;;;;5115666;27;20110;-76
2022/05/29 04:27:53;;;;;;;3.38;1.58;;;;;;;;;;5097091;27;20024;-75
2022/05/29 04:30:18;;;;;;;3.97;1.67;;;;;;;;;;5114615;27;20031;-73
2022/05/29 04:33:02;;;;;;;3.42;1.60;;;;;;;;;;5122513;27;20045;-72
2022/05/29 04:35:28;;;;;;;;;;;;;;;;;;5117865;27;20491;-73
2022/05/29 04:37:53;;;;;;;4.43;1.83;;;;;;;;;;5116509;27;19981;-76
2022/05/29 04:40:18;;;;;;;3.92;1.73;;;;;;;;;;5096120;27;20031;-72
2022/05/29 04:42:44;;;;;;;5.40;1.50;;;;;;;;;;5117860;27;20455;-73
2022/05/29 04:45:10;;;;;;;3.22;1.50;;;;;;;;;;5100516;27;20098;-75
2022/05/29 04:47:35;;;;;;;5.63;1.50;;;;;;;;;;5123946;27;20050;-76
2022/05/29 04:50:00;;;;;;;4.43;1.65;;;;;;;;;;5109961;27;20032;-75
2022/05/29 04:52:26;;;;;;;3.20;1.50;;;;;;;;;;5117247;27;20074;-72
2022/05/29 04:54:51;;;;;;;3.97;1.60;;;;;;;;;;5117402;27;20024;-72
2022/05/29 04:57:18;;;;;;;3.28;1.40;;;;;;;;;;5116319;27;20019;-72
2022/05/29 04:59:44;;;;;;;2.42;1.25;;;;;;;;;;5097215;27;20020;-74
2022/05/29 05:02:09;;;;;;;3.85;1.23;;;;;;;;;;5116394;27;20438;-75
2022/05/29 05:04:35;;;;;;;3.72;1.50;;;;;;;;;;5112000;27;20031;-76
2022/05/29 05:07:00;;;;;;;3.17;1.73;;;;;;;;;;5117928;27;20027;-72
2022/05/29 05:09:27;;;;;;;3.55;1.40;;;;;;;;;;5117068;27;20026;-72
2022/05/29 05:11:54;;;;;;;2.80;1.60;;;;;;;;;;5117637;27;20028;-72
2022/05/29 05:14:20;;;;;;;2.95;1.40;;;;;;;;;;5115932;27;20046;-72
2022/05/29 05:16:46;;;;;;;5.65;2.30;;;;;;;;;;5114275;28;20407;-76
2022/05/29 05:19:12;;;;;;;3.88;1.70;;;;;;;;;;5094545;28;20467;-72
2022/05/29 05:21:38;;;;;;;3.80;1.60;;;;;;;;;;5110433;28;20039;-76
2022/05/29 05:24:04;;;;;;;3.50;1.58;;;;;;;;;;5113219;28;20023;-75
2022/05/29 05:26:30;;;;;;;4.78;1.60;;;;;;;;;;5098986;28;20156;-75
2022/05/29 05:28:56;;;;;;;3.25;1.40;;;;;;;;;;5108568;28;20158;-75
2022/05/29 05:31:22;;;;;;;5.35;1.60;;;;;;;;;;5121229;28;20378;-72
2022/05/29 05:33:47;;;;;;;3.10;1.50;;;;;;;;;;5114812;28;20048;-72
2022/05/29 05:36:14;;;;;;;3.55;1.58;;;;;;;;;;5117318;28;20115;-74
2022/05/29 05:38:39;;;;;;;4.15;1.70;;;;;;;;;;5115180;28;20039;-71
2022/05/29 05:41:04;;;;;;;3.90;1.60;;;;;;;;;;5116480;28;21988;-73
2022/05/29 05:43:31;;;;;;;4.60;1.70;;;;;;;;;;5112031;28;20471;-76
2022/05/29 05:45:56;;;;;;;3.15;1.40;;;;;;;;;;5118882;28;20050;-72
2022/05/29 05:48:23;;;;;;;5.20;1.80;;;;;;;;;;5116417;28;20035;-73
2022/05/29 05:50:49;;;;;;;4.25;1.70;;;;;;;;;;5094549;28;20081;-75
2022/05/29 05:53:14;;;;;;;5.30;1.88;;;;;;;;;;5112188;27;20059;-76
2022/05/29 05:55:39;;;;;;;8.25;2.40;;;;;;;;;;5123623;28;20474;-75
2022/05/29 05:58:05;;;;;;;3.67;1.88;;;;;;;;;;5115509;27;20035;-73
2022/05/29 06:00:30;;;;;;;5.25;2.00;;;;;;;;;;5115274;27;20489;-72
2022/05/29 06:02:55;;;;;;;4.82;2.13;;;;;;;;;;5119469;27;20521;-76
2022/05/29 06:05:21;;;;;;;4.15;2.10;;;;;;;;;;5118743;27;20232;-76
2022/05/29 06:07:46;;;;;;;4.53;2.10;;;;;;;;;;5124203;27;20072;-76
2022/05/29 06:10:12;;;;;;;3.80;1.83;;;;;;;;;;5114891;27;20028;-72
2022/05/29 06:12:39;;;;;;;3.70;1.70;;;;;;;;;;5118503;27;20025;-74
2022/05/29 06:15:06;;;;;;;4.57;2.00;;;;;;;;;;5117849;27;20030;-72
2022/05/29 06:17:31;;;;;;;2.92;1.50;;;;;;;;;;5101729;27;21409;-76
2022/05/29 06:19:56;;;;;;;5.07;2.08;;;;;;;;;;5123905;27;20027;-71
2022/05/29 06:22:22;;;;;;;6.13;1.80;;;;;;;;;;5121083;27;20639;-74
2022/05/29 06:24:47;;;;;;;4.50;2.40;;;;;;;;;;5104892;27;20038;-75
2022/05/29 06:27:12;;;;;;;4.00;1.80;;;;;;;;;;5125254;27;20023;-74
2022/05/29 06:29:38;;;;;;;7.28;1.85;;;;;;;;;;5118540;27;20118;-76
2022/05/29 06:32:06;;;;;;;4.80;2.03;;;;;;;;;;5119195;27;20023;-72
2022/05/29 06:34:33;;;;;;;3.28;1.85;;;;;;;;;;5098664;27;20502;-75
2022/05/29 06:36:58;;;;;;;3.75;1.70;;;;;;;;;;5095535;27;20028;-72
2022/05/29 06:39:23;;;;;;;3.88;1.77;;;;;;;;;;5124876;27;20119;-75
2022/05/29 06:41:49;;;;;;;4.75;1.80;;;;;;;;;;5114992;27;20019;-73
2022/05/29 06:44:14;;;;;;;2.55;1.45;;;;;;;;;;5112961;27;20113;-75
2022/05/29 06:46:40;;;;;;;3.10;1.45;;;;;;;;;;5112471;27;20108;-75
2022/05/29 06:49:05;;;;;;;4.25;1.70;;;;;;;;;;5115026;27;20517;-76
2022/05/29 06:51:31;;;;;;;3.53;1.73;;;;;;;;;;5119502;27;20041;-71
2022/05/29 06:53:56;;;;;;;5.30;1.50;;;;;;;;;;5113488;27;20054;-76
2022/05/29 06:56:23;;;;;;;4.75;1.40;;;;;;;;;;5117306;27;20019;-72
2022/05/29 06:58:49;;;;;;;3.17;1.38;;;;;;;;;;5092539;28;20232;-72
2022/05/29 07:07:00;;;;;;;2.22;1.35;;;;;;;;;;5122674;27;20030;-72
2022/05/29 07:09:28;;;;;;;7.35;1.90;;;;;;;;;;5117542;27;20033;-75
2022/05/29 07:12:05;;;;;;;4.30;1.58;;;;;;;;;;5116457;27;20973;-72
2022/05/29 07:14:30;;;;;;;3.65;1.75;;;;;;;;;;5112729;27;20475;-76
2022/05/29 07:16:56;;;;;;;4.50;1.52;;;;;;;;;;5121687;27;20028;-75
2022/05/29 07:19:24;;;;;;;3.60;1.60;;;;;;;;;;5103895;27;20710;-75
2022/05/29 07:21:49;;;;;;;4.82;1.85;;;;;;;;;;5118437;27;20047;-72
2022/05/29 07:24:15;;;;;;;4.28;1.50;;;;;;;;;;5107805;27;20031;-72
2022/05/29 07:26:40;;;;;;;5.63;1.73;;;;;;;;;;5132313;27;20102;-75
2022/05/29 07:29:05;;;;;;;5.28;1.60;;;;;;;;;;5126396;27;20027;-76
2022/05/29 07:31:31;;;;;;;3.70;1.50;;;;;;;;;;5117515;27;20149;-76
2022/05/29 07:33:57;;;;;;;3.47;1.60;;;;;;;;;;5117845;27;20051;-75
2022/05/29 07:36:26;;;;;;;4.00;1.58;;;;;;;;;;5117161;27;20030;-75
2022/05/29 07:38:52;;;;;;;6.50;1.70;;;;;;;;;;5098390;27;20039;-75
2022/05/29 07:44:01;;;;;;;5.13;1.45;;;;;;;;;;5119881;27;20026;-72
2022/05/29 07:46:27;;;;;;;4.22;1.50;;;;;;;;;;5099307;27;20459;-72
2022/05/29 07:48:52;;;;;;;4.13;1.67;;;;;;;;;;5122576;27;20024;-73
2022/05/29 07:51:18;;;;;;;4.40;1.77;;;;;;;;;;5117828;27;20063;-72
2022/05/29 07:53:44;;;;;;;4.22;1.55;;;;;;;;;;5118038;27;20031;-72
2022/05/29 07:56:10;;;;;;;4.20;1.60;;;;;;;;;;5121055;27;20027;-72
2022/05/29 07:58:38;;;;;;;6.00;2.15;;;;;;;;;;5116683;27;20186;-74
2022/05/29 08:01:04;;;;;;;4.47;1.60;;;;;;;;;;5123516;27;20032;-74
2022/05/29 08:03:29;;;;;;;4.13;1.58;;;;;;;;;;5101871;27;20031;-72
2022/05/29 08:05:56;;;;;;;3.90;1.60;;;;;;;;;;5103635;27;20019;-75
2022/05/29 08:08:22;;;;;;;3.78;1.30;;;;;;;;;;5115046;27;20037;-75
2022/05/29 08:10:47;;;;;;;4.93;1.42;;;;;;;;;;5100569;28;20032;-73
2022/05/29 08:13:14;;;;;;;5.88;1.70;;;;;;;;;;5097961;27;20450;-73
2022/05/29 08:15:39;;;;;;;4.68;1.45;;;;;;;;;;5126266;27;20428;-72
2022/05/29 08:18:05;;;;;;;4.57;1.55;;;;;;;;;;5113794;27;20081;-75
2022/05/29 08:20:31;;;;;;;3.50;1.30;;;;;;;;;;5103925;27;20019;-73
2022/05/29 08:22:56;;;;;;;3.60;1.30;;;;;;;;;;5101766;28;20042;-72
2022/05/29 08:30:53;;;;;;;6.53;1.40;;;;;;;;;;5121787;27;20114;-73
2022/05/29 08:33:25;;;;;;;3.42;1.00;;;;;;;;;;5106986;27;20046;-73
2022/05/29 08:36:04;;;;;;;5.57;1.50;;;;;;;;;;5104390;27;20497;-74
2022/05/29 08:38:30;;;;;;;3.88;1.40;;;;;;;;;;5104167;27;20112;-75
2022/05/29 08:41:02;;;;;;;5.45;1.42;;;;;;;;;;5116813;27;20026;-73
2022/05/29 08:44:06;;;;;;;7.25;2.08;;;;;;;;;;5122857;27;20436;-76
2022/05/29 08:46:37;;;;;;;3.25;1.35;;;;;;;;;;5120252;27;20020;-73
2022/05/29 08:49:02;;;;;;;4.75;1.77;;;;;;;;;;5111883;27;20474;-76
2022/05/29 08:51:52;;;;;;;5.20;1.58;;;;;;;;;;5107032;27;20027;-76
2022/05/29 08:54:48;;;;;;;5.28;1.70;;;;;;;;;;5113207;27;20114;-75
2022/05/29 08:57:44;;;;;;;4.30;1.23;;;;;;;;;;5114141;27;20019;-73
2022/05/29 09:00:47;;;;;;;4.53;1.30;;;;;;;;;;5074484;27;20112;-74
2022/05/29 09:03:31;;;;;;;4.73;1.10;;;;;;;;;;5124982;27;20112;-76
2022/05/29 09:06:41;;;;;;;3.35;1.10;;;;;;;;;;5124701;27;20030;-76
2022/05/29 09:09:19;;;;;;;2.60;1.00;;;;;;;;;;5120634;27;20475;-73
2022/05/29 09:12:21;;;;;;;2.33;1.10;;;;;;;;;;5121111;27;20479;-72
2022/05/29 09:14:55;;;;;;;6.05;1.45;;;;;;;;;;5111991;27;20023;-73
2022/05/29 09:17:23;;;;;;;3.67;1.45;;;;;;;;;;5115358;28;20081;-72
2022/05/29 09:20:00;;;;;;;2.53;1.40;;;;;;;;;;5101403;28;20030;-75
2022/05/29 09:22:37;;;;;;;7.95;1.73;;;;;;;;;;5117531;28;20024;-72
2022/05/29 09:25:25;;;;;;;6.70;1.80;;;;;;;;;;5094176;28;20031;-75
2022/05/29 09:27:51;;;;;;;5.25;1.38;;;;;;;;;;5097999;28;20052;-76
2022/05/29 09:30:18;;;;;;;3.05;1.58;;;;;;;;;;5117457;27;20121;-76
2022/05/29 09:32:53;;;;;;;4.25;1.30;;;;;;;;;;5118819;27;20027;-76
2022/05/29 09:35:43;;;;;;;4.40;1.20;;;;;;;;;;5129645;27;20047;-72
2022/05/29 09:39:06;;;;;;;3.33;1.35;;;;;;;;;;5115731;27;20081;-72
2022/05/29 09:41:41;;;;;;;7.65;1.98;;;;;;;;;;5024091;28;20087;-75
2022/05/29 09:44:17;;;;;;;3.95;1.85;;;;;;;;;;5008643;28;20043;-71
2022/05/29 09:46:46;;;;;;;2.83;1.35;;;;;;;;;;5080090;27;20047;-76
2022/05/29 09:49:45;;;;;;;3.22;1.08;;;;;;;;;;5095961;27;20019;-75
2022/05/29 09:52:13;;;;;;;3.45;0.90;;;;;;;;;;5106810;27;20053;-72
2022/05/29 09:54:55;;;;;;;2.13;0.82;;;;;;;;;;5116274;27;20042;-75
2022/05/29 09:57:25;;;;;;;1.35;0.70;;;;;;;;;;5115803;27;20031;-74
2022/05/29 09:59:55;;;;;;;3.17;0.90;;;;;;;;;;5115682;27;20077;-72
2022/05/29 10:02:31;;;;;;;2.00;0.70;;;;;;;;;;5118172;27;20062;-76
2022/05/29 10:04:59;;;;;;;5.03;0.90;;;;;;;;;;5097790;28;20027;-73
2022/05/29 10:07:35;;;;;;;3.35;0.95;;;;;;;;;;5098644;27;20064;-76
2022/05/29 10:10:13;;;;;;;1.75;0.82;;;;;;;;;;5104965;27;20412;-72
2022/05/29 10:12:47;;;;;;;3.55;1.00;;;;;;;;;;5114296;27;20528;-75
2022/05/29 10:15:25;;;;;;;3.28;1.10;;;;;;;;;;5098859;27;20024;-75
2022/05/29 10:17:59;;;;;;;1.42;0.68;;;;;;;;;;5116111;27;20031;-75
2022/05/29 10:20:33;;;;;;;2.65;0.77;;;;;;;;;;5111177;27;20099;-72
2022/05/29 10:23:02;;;;;;;2.92;0.90;;;;;;;;;;5112723;27;22030;-75
2022/05/29 10:25:31;;;;;;;2.70;0.85;;;;;;;;;;5119626;27;20023;-75
2022/05/29 10:28:01;;;;;;;4.95;0.85;;;;;;;;;;5121304;27;20075;-75
2022/05/29 10:30:36;;;;;;;1.73;0.50;;;;;;;;;;5101701;27;20031;-75
2022/05/29 10:33:08;;;;;;;1.50;0.70;;;;;;;;;;5109278;27;20028;-72
2022/05/29 10:35:37;;;;;;;2.53;0.85;;;;;;;;;;5111377;27;20034;-75
2022/05/29 10:38:15;;;;;;;1.70;0.70;;;;;;;;;;5121118;27;20031;-73
2022/05/29 10:40:42;;;;;;;2.20;0.73;;;;;;;;;;5116699;27;20039;-76
2022/05/29 10:43:08;;;;;;;2.15;0.95;;;;;;;;;;5118467;27;20030;-72
2022/05/29 10:45:42;;;;;;;1.88;0.80;;;;;;;;;;5101225;27;20034;-75
2022/05/29 10:48:36;;;;;;;1.58;0.70;;;;;;;;;;5117377;27;20062;-73
2022/05/29 10:51:15;;;;;;;0.60;0.55;;;;;;;;;;5040289;27;20045;-73
2022/05/29 10:54:06;;;;;;;1.30;0.73;;;;;;;;;;5112918;27;20402;-74
2022/05/29 10:56:50;;;;;;;2.42;0.70;;;;;;;;;;5121231;27;20034;-72
2022/05/29 10:59:32;;;;;;;1.98;1.00;;;;;;;;;;5095218;27;20039;-76
2022/05/29 11:05:13;;;;;;;2.67;0.68;;;;;;;;;;5113746;27;20034;-76
2022/05/29 11:08:10;;;;;;;1.40;0.50;;;;;;;;;;5113018;27;20023;-73
2022/05/29 11:11:00;;;;;;;3.15;0.52;;;;;;;;;;5110802;27;20034;-73
2022/05/29 11:13:46;;;;;;;2.53;0.50;;;;;;;;;;5103016;27;20030;-73
2022/05/29 11:16:25;;;;;;;0.63;0.47;;;;;;;;;;5093719;27;20498;-72
2022/05/29 11:19:15;;;;;;;1.13;0.70;;;;;;;;;;5098352;27;20106;-75
2022/05/29 11:21:55;;;;;;;2.17;0.68;;;;;;;;;;5111202;27;20038;-75
2022/05/29 11:24:53;;;;;;;2.88;0.80;;;;;;;;;;5110139;27;20558;-73
2022/05/29 11:27:41;;;;;;;1.98;0.80;;;;;;;;;;5083648;27;20036;-73
2022/05/29 11:30:27;;;;;;;2.25;0.80;;;;;;;;;;5112662;27;20391;-74
2022/05/29 11:32:58;;;;;;;1.60;0.60;;;;;;;;;;5111833;27;20059;-74
2022/05/29 11:35:40;;;;;;;5.05;1.02;;;;;;;;;;5110769;27;20032;-71
2022/05/29 11:38:27;;;;;;;2.25;0.90;;;;;;;;;;5109962;27;20040;-74
2022/05/29 11:40:59;;;;;;;1.95;1.20;;;;;;;;;;5103132;27;21470;-75
2022/05/29 11:43:52;;;;;;;3.42;1.40;;;;;;;;;;5114540;27;20055;-75
2022/05/29 11:52:32;;;;;;;2.35;0.80;;;;;;;;;;5119785;27;20105;-75
2022/05/29 11:55:08;;;;;;;5.07;0.77;;;;;;;;;;5123876;27;20053;-76
2022/05/29 11:57:43;;;;;;;2.30;0.77;;;;;;;;;;5118620;27;20019;-73
2022/05/29 12:00:28;;;;;;;3.50;0.95;;;;;;;;;;5112623;27;20035;-76
2022/05/29 12:03:12;;;;;;;2.92;0.80;;;;;;;;;;5091667;27;20023;-74
2022/05/29 12:05:45;;;;;;;3.42;0.88;;;;;;;;;;5110924;27;20036;-75
2022/05/29 12:08:13;;;;;;;3.08;0.90;;;;;;;;;;5108139;27;20024;-73
2022/05/29 12:11:04;;;;;;;4.68;0.90;;;;;;;;;;5114358;27;20394;-76
2022/05/29 12:13:36;;;;;;;3.28;0.80;;;;;;;;;;5111351;27;20035;-75
2022/05/29 12:16:07;;;;;;;3.70;0.95;;;;;;;;;;5109678;27;20031;-75
2022/05/29 12:18:53;;;;;;;1.77;0.80;;;;;;;;;;5118456;27;20114;-73
2022/05/29 12:21:48;;;;;;;2.75;1.15;;;;;;;;;;5093268;27;20643;-74
2022/05/29 12:24:19;;;;;;;3.15;1.00;;;;;;;;;;5104554;27;20043;-75
2022/05/29 12:26:59;;;;;;;3.13;0.88;;;;;;;;;;5119115;27;20034;-75
2022/05/29 12:29:30;;;;;;;4.47;1.20;;;;;;;;;;5102220;27;20024;-75
2022/05/29 12:32:03;;;;;;;4.95;0.95;;;;;;;;;;5118276;27;20534;-74
2022/05/29 12:34:34;;;;;;;1.90;0.85;;;;;;;;;;5119009;27;20125;-73
2022/05/29 12:37:27;;;;;;;2.20;1.08;;;;;;;;;;5113023;27;20071;-76
2022/05/29 12:40:15;;;;;;;2.08;0.80;;;;;;;;;;5115736;27;20052;-76
2022/05/29 12:43:16;;;;;;;2.90;0.80;;;;;;;;;;5101355;27;20042;-76
2022/05/29 12:46:00;;;;;;;4.95;0.90;;;;;;;;;;5107065;27;20032;-76
2022/05/29 12:48:48;;;;;;;3.10;0.95;;;;;;;;;;5091051;27;20019;-74
2022/05/29 12:51:16;;;;;;;3.45;0.82;;;;;;;;;;5106823;27;20556;-76
2022/05/29 12:54:12;;;;;;;2.83;1.00;;;;;;;;;;5114483;27;20452;-73
2022/05/29 12:57:08;;;;;;;2.67;1.00;;;;;;;;;;5112409;27;20442;-74
2022/05/29 12:59:46;;;;;;;3.00;0.68;;;;;;;;;;5100577;27;20031;-75
2022/05/29 13:02:32;;;;;;;4.28;1.05;;;;;;;;;;5108804;27;20029;-74
2022/05/29 13:05:25;;;;;;;2.58;0.93;;;;;;;;;;5103018;27;20023;-75
2022/05/29 13:08:14;;;;;;;4.77;1.37;;;;;;;;;;5107501;27;20561;-74
2022/05/29 13:10:43;;;;;;;4.72;1.08;;;;;;;;;;5106303;27;20293;-73
2022/05/29 13:13:19;;;;;;;2.65;0.80;;;;;;;;;;5126817;27;20026;-75
2022/05/29 13:15:47;;;;;;;2.80;0.90;;;;;;;;;;5109088;27;20027;-73
2022/05/29 13:21:17;;;;;;;2.70;0.70;;;;;;;;;;5097614;27;20043;-74
2022/05/29 13:23:54;;;;;;;2.83;0.85;;;;;;;;;;5120017;27;20027;-74
2022/05/29 13:26:21;;;;;;;3.58;1.00;;;;;;;;;;5106697;28;20038;-73
2022/05/29 13:28:59;;;;;;;4.35;1.08;;;;;;;;;;5105446;28;20110;-75
2022/05/29 13:31:26;;;;;;;4.93;0.80;;;;;;;;;;5116204;28;20053;-74
2022/05/29 13:33:57;;;;;;;4.05;0.98;;;;;;;;;;5094841;28;20115;-73
2022/05/29 13:36:44;;;;;;;2.92;0.82;;;;;;;;;;5093082;28;20027;-75
2022/05/29 13:39:49;;;;;;;2.63;0.85;;;;;;;;;;5115756;27;20043;-75
2022/05/29 13:42:24;;;;;;;2.75;0.75;;;;;;;;;;5097212;28;20062;-75
2022/05/29 13:44:50;;;;;;;2.30;0.70;;;;;;;;;;5113460;28;20058;-76
2022/05/29 13:47:18;;;;;;;2.45;1.10;;;;;;;;;;5113012;28;20019;-76
2022/05/29 13:49:48;;;;;;;5.55;1.42;;;;;;;;;;5115557;28;20668;-76
2022/05/29 13:52:28;;;;;;;2.63;0.80;;;;;;;;;;5095124;28;20031;-74
2022/05/29 13:55:04;;;;;;;2.28;0.75;;;;;;;;;;5114369;28;20020;-73
2022/05/29 14:03:59;;;;;;;1.92;0.80;;;;;;;;;;5118163;28;20386;-72
2022/05/29 14:06:41;;;;;;;1.33;0.60;;;;;;;;;;5093209;28;20032;-74
2022/05/29 14:09:12;;;;;;;2.42;0.85;;;;;;;;;;5109409;28;20031;-74
2022/05/29 14:11:52;;;;;;;2.17;0.80;;;;;;;;;;5110592;28;20039;-72
2022/05/29 14:14:34;;;;;;;1.65;0.70;;;;;;;;;;5102186;27;20429;-75
2022/05/29 14:17:26;;;;;;;3.33;1.00;;;;;;;;;;5129267;27;20019;-74
2022/05/29 14:20:06;;;;;;;3.58;0.70;;;;;;;;;;5122922;27;20031;-75
2022/05/29 14:22:45;;;;;;;3.78;0.90;;;;;;;;;;5111826;27;20041;-75
2022/05/29 14:25:26;;;;;;;3.08;0.77;;;;;;;;;;5126218;27;20114;-75
2022/05/29 14:28:23;;;;;;;3.13;0.88;;;;;;;;;;5124153;27;20027;-73
2022/05/29 14:30:55;;;;;;;2.53;0.70;;;;;;;;;;5132517;27;20027;-73
2022/05/29 14:33:39;;;;;;;1.50;0.80;;;;;;;;;;5115099;27;20051;-75
2022/05/29 14:36:15;;;;;;;3.10;0.90;;;;;;;;;;5115977;27;20027;-75
2022/05/29 14:39:05;;;;;;;3.05;0.90;;;;;;;;;;5115793;27;20035;-75
2022/05/29 14:41:37;;;;;;;2.45;0.77;;;;;;;;;;5113249;27;20035;-75
2022/05/29 14:44:08;;;;;;;3.17;0.63;;;;;;;;;;5096362;27;20023;-76
2022/05/29 14:46:47;;;;;;;2.33;0.70;;;;;;;;;;5112597;27;20566;-75
2022/05/29 14:49:23;;;;;;;1.67;0.63;;;;;;;;;;5114273;27;20049;-75
2022/05/29 14:52:16;;;;;;;1.75;0.70;;;;;;;;;;5114762;27;20027;-76
2022/05/29 14:54:49;;;;;;;3.72;0.73;;;;;;;;;;5119115;27;20035;-73
2022/05/29 14:57:29;;;;;;;3.55;0.80;;;;;;;;;;5124073;27;20028;-75
2022/05/29 14:59:56;;;;;;;1.60;0.60;;;;;;;;;;5095512;27;20031;-76
2022/05/29 15:02:30;;;;;;;3.72;0.80;;;;;;;;;;5094888;27;21124;-73
2022/05/29 15:05:01;;;;;;;3.08;0.82;;;;;;;;;;5110173;27;20390;-73
2022/05/29 15:10:32;;;;;;;2.47;0.88;;;;;;;;;;5108692;27;20098;-75
2022/05/29 15:13:21;;;;;;;2.20;0.60;;;;;;;;;;5111985;27;20414;-75
2022/05/29 15:15:53;;;;;;;2.95;0.80;;;;;;;;;;5123385;27;20080;-78
2022/05/29 15:18:23;;;;;;;2.95;0.77;;;;;;;;;;5108001;27;20491;-75
2022/05/29 15:27:06;;;;;;;2.47;0.80;;;;;;;;;;5040664;28;20029;-73
2022/05/29 15:29:35;;;;;;;1.35;0.80;;;;;;;;;;5043270;28;20489;-75
2022/05/29 15:32:04;;;;;;;2.95;0.70;;;;;;;;;;5069620;27;20636;-72
2022/05/29 15:34:51;;;;;;;2.58;0.65;;;;;;;;;;5122948;27;20134;-73
2022/05/29 15:37:22;;;;;;;4.72;0.80;;;;;;;;;;5125940;27;20104;-75
2022/05/29 15:40:03;;;;;;;1.48;0.65;;;;;;;;;;5112090;27;20034;-73
2022/05/29 15:42:42;;;;;;;1.77;0.73;;;;;;;;;;5126755;27;20115;-75
2022/05/29 15:45:26;;;;;;;1.50;0.45;;;;;;;;;;5122146;27;20038;-73
2022/05/29 15:48:09;;;;;;;2.80;0.80;;;;;;;;;;5112557;27;20031;-73
2022/05/29 15:50:52;;;;;;;2.72;0.65;;;;;;;;;;5123344;27;20052;-75
2022/05/29 15:53:40;;;;;;;2.88;0.68;;;;;;;;;;5105614;27;20031;-73
2022/05/29 15:56:16;;;;;;;2.90;1.15;;;;;;;;;;5098049;27;20550;-73
2022/05/29 15:58:44;;;;;;;1.75;0.70;;;;;;;;;;5119857;27;20022;-75
2022/05/29 16:01:13;;;;;;;7.95;1.10;;;;;;;;;;5122499;27;20030;-75
2022/05/29 16:03:40;;;;;;;1.92;0.70;;;;;;;;;;5117177;27;20031;-73
2022/05/29 16:06:39;;;;;;;2.42;0.70;;;;;;;;;;5124108;27;20046;-75
2022/05/29 16:09:13;;;;;;;1.85;0.60;;;;;;;;;;5091550;27;20054;-75
2022/05/29 16:12:01;;;;;;;2.78;0.73;;;;;;;;;;5106995;27;20027;-76
2022/05/29 16:14:38;;;;;;;1.00;0.60;;;;;;;;;;5105195;27;20023;-73